Página principal
METAR-TAF:

METAR-TAF

Aeroportos :

Caracas, Venezuela

Aeroporto Internacional Simón Bolívar

latitude: 10-36N, longitude: 066-59W, altura: 43 m

Observação actual do tempo

O boletim foi feito há 31 minutos, às 23:00 UTC
Vento 3 kt de norte
Temperatura 27°C
Humidade 70%
Pressão 1010 hPa
Visibilidade 10 km ou mais
Poucas nuvensa uma altura de 1600 ft

METAR: SVMI 122300Z 36003KT 9999 FEW016 27/21 Q1010

Hora: 19:31 (23:31 UTC)

Previsão

O boletim foi feito há 7 horas e 31 minutos, às 16:00 UTC
Previsão válida de 12 às 18 UTC a 13 às 18 UTC
Vento 6 kt de nordeste
Visibilidade 10 km ou mais
Poucas nuvensa uma altura de 1600 ft
Nuvens dispersasa uma altura de 10000 ft
Tornando-se
de 12 às 18 UTC a 12 às 22 UTC
Vento 12 kt de este
Visibilidade 10 km ou mais
Nuvens dispersasa uma altura de 1600 ft

TAF: SVMI 121600Z 1218/1318 05006KT 9999 FEW016 SCT100 TX31/18Z TN23/08Z BECMG 1218/1222 10012KT 9999 SCT016

Observações e previsões do tempo de mais de 4000 aeroportos (mensagens METAR e TAF).

As estações disponíveis são os pontos amarelos e vermelhos sobre o mapa.

Mova o rato sobre o mapa para ver o nome da estação.

Depois clique no ponto para visualizar as observações e previsões meteorológicas.

Para alterar o mapa : clique nos botões verdes com uma cruz preta para aumentar o zoom; no botão verde com uma pitada de zoom; ou nas setas verdes para mapas adjacentes.


METAR-TAF: